sensor_id;sensor_type;location;lat;lon;timestamp;P1;P2;P0
73146;PMS7003;61345;48.922;2.244;2022-12-20T00:00:21;3.75;3.00;2.75
73146;PMS7003;61345;48.922;2.244;2022-12-20T00:02:46;5.00;3.00;3.00
73146;PMS7003;61345;48.922;2.244;2022-12-20T00:05:12;3.00;3.00;3.00
73146;PMS7003;61345;48.922;2.244;2022-12-20T00:07:37;4.75;3.00;2.75
73146;PMS7003;61345;48.922;2.244;2022-12-20T00:10:02;4.00;2.50;2.00
73146;PMS7003;61345;48.922;2.244;2022-12-20T00:12:28;4.00;4.00;3.00
73146;PMS7003;61345;48.922;2.244;2022-12-20T00:14:53;5.50;4.00;2.50
73146;PMS7003;61345;48.922;2.244;2022-12-20T00:17:19;4.50;2.75;2.00
73146;PMS7003;61345;48.922;2.244;2022-12-20T00:19:45;4.50;3.00;2.50
73146;PMS7003;61345;48.922;2.244;2022-12-20T00:22:10;3.75;3.00;3.00
73146;PMS7003;61345;48.922;2.244;2022-12-20T00:24:35;6.50;3.00;2.00
73146;PMS7003;61345;48.922;2.244;2022-12-20T00:27:01;4.00;3.00;2.50
73146;PMS7003;61345;48.922;2.244;2022-12-20T00:29:27;3.25;3.00;3.00
73146;PMS7003;61345;48.922;2.244;2022-12-20T00:31:53;4.75;3.00;2.00
73146;PMS7003;61345;48.922;2.244;2022-12-20T00:34:18;5.75;2.75;2.00
73146;PMS7003;61345;48.922;2.244;2022-12-20T00:36:43;3.00;3.00;2.00
73146;PMS7003;61345;48.922;2.244;2022-12-20T00:39:09;3.50;3.50;2.25
73146;PMS7003;61345;48.922;2.244;2022-12-20T00:41:34;5.50;3.00;2.00
73146;PMS7003;61345;48.922;2.244;2022-12-20T00:44:00;1.75;1.75;1.25
73146;PMS7003;61345;48.922;2.244;2022-12-20T00:46:26;3.00;3.00;2.25
73146;PMS7003;61345;48.922;2.244;2022-12-20T00:48:53;4.00;2.25;2.00
73146;PMS7003;61345;48.922;2.244;2022-12-20T00:51:20;3.00;2.00;2.00
73146;PMS7003;61345;48.922;2.244;2022-12-20T00:53:47;3.00;2.25;2.00
73146;PMS7003;61345;48.922;2.244;2022-12-20T00:56:12;3.00;2.75;2.00
73146;PMS7003;61345;48.922;2.244;2022-12-20T00:58:38;3.00;3.00;2.25
73146;PMS7003;61345;48.922;2.244;2022-12-20T01:01:06;3.50;2.00;2.00
73146;PMS7003;61345;48.922;2.244;2022-12-20T01:03:38;6.00;2.50;2.00
73146;PMS7003;61345;48.922;2.244;2022-12-20T01:06:04;1.75;1.75;1.75
73146;PMS7003;61345;48.922;2.244;2022-12-20T01:08:29;4.50;3.00;2.00
73146;PMS7003;61345;48.922;2.244;2022-12-20T01:11:05;4.00;2.00;2.00
73146;PMS7003;61345;48.922;2.244;2022-12-20T01:13:33;3.50;2.25;2.25
73146;PMS7003;61345;48.922;2.244;2022-12-20T01:16:04;2.00;1.00;1.00
73146;PMS7003;61345;48.922;2.244;2022-12-20T01:18:33;3.00;2.00;1.75
73146;PMS7003;61345;48.922;2.244;2022-12-20T01:20:59;3.25;2.50;2.00
73146;PMS7003;61345;48.922;2.244;2022-12-20T01:23:26;3.00;2.00;2.00
73146;PMS7003;61345;48.922;2.244;2022-12-20T01:25:51;4.50;1.50;1.00
73146;PMS7003;61345;48.922;2.244;2022-12-20T01:28:17;3.00;2.00;2.00
73146;PMS7003;61345;48.922;2.244;2022-12-20T01:30:42;4.00;2.00;1.25
73146;PMS7003;61345;48.922;2.244;2022-12-20T01:33:07;2.00;1.00;1.00
73146;PMS7003;61345;48.922;2.244;2022-12-20T01:35:33;3.50;1.75;1.00
73146;PMS7003;61345;48.922;2.244;2022-12-20T01:37:58;6.00;2.00;1.00
73146;PMS7003;61345;48.922;2.244;2022-12-20T01:40:23;4.00;2.00;2.00
73146;PMS7003;61345;48.922;2.244;2022-12-20T01:42:49;2.50;2.00;1.00
73146;PMS7003;61345;48.922;2.244;2022-12-20T01:45:18;4.00;2.00;1.75
73146;PMS7003;61345;48.922;2.244;2022-12-20T01:47:49;2.75;1.25;1.00
73146;PMS7003;61345;48.922;2.244;2022-12-20T01:50:15;3.50;1.75;1.00
73146;PMS7003;61345;48.922;2.244;2022-12-20T01:52:41;1.25;1.25;1.00
73146;PMS7003;61345;48.922;2.244;2022-12-20T01:55:09;3.50;2.00;1.50
73146;PMS7003;61345;48.922;2.244;2022-12-20T01:57:39;3.00;1.00;1.00
73146;PMS7003;61345;48.922;2.244;2022-12-20T02:00:08;2.00;2.00;1.75
73146;PMS7003;61345;48.922;2.244;2022-12-20T02:02:34;4.50;1.00;1.00
73146;PMS7003;61345;48.922;2.244;2022-12-20T02:05:00;1.25;1.25;1.00
73146;PMS7003;61345;48.922;2.244;2022-12-20T02:07:26;3.00;1.00;1.00
73146;PMS7003;61345;48.922;2.244;2022-12-20T02:09:53;2.50;2.00;1.50
73146;PMS7003;61345;48.922;2.244;2022-12-20T02:12:20;1.75;1.75;1.50
73146;PMS7003;61345;48.922;2.244;2022-12-20T02:14:59;3.50;1.25;1.00
73146;PMS7003;61345;48.922;2.244;2022-12-20T02:30:34;2.75;1.00;1.00
73146;PMS7003;61345;48.922;2.244;2022-12-20T02:33:04;1.50;1.50;1.25
73146;PMS7003;61345;48.922;2.244;2022-12-20T02:35:33;2.25;1.00;1.00
73146;PMS7003;61345;48.922;2.244;2022-12-20T02:38:01;1.50;1.50;1.00
73146;PMS7003;61345;48.922;2.244;2022-12-20T02:40:31;4.00;1.00;1.00
73146;PMS7003;61345;48.922;2.244;2022-12-20T02:43:02;1.00;1.00;1.00
73146;PMS7003;61345;48.922;2.244;2022-12-20T02:45:30;5.00;2.00;1.75
73146;PMS7003;61345;48.922;2.244;2022-12-20T02:48:07;2.00;2.00;1.50
73146;PMS7003;61345;48.922;2.244;2022-12-20T02:50:39;1.00;1.00;1.00
73146;PMS7003;61345;48.922;2.244;2022-12-20T02:53:09;2.00;1.75;1.75
73146;PMS7003;61345;48.922;2.244;2022-12-20T02:55:58;1.75;1.00;1.00
73146;PMS7003;61345;48.922;2.244;2022-12-20T03:00:51;0.50;0.50;0.50
73146;PMS7003;61345;48.922;2.244;2022-12-20T03:03:18;2.75;1.25;1.00
73146;PMS7003;61345;48.922;2.244;2022-12-20T03:05:47;1.75;1.75;1.50
73146;PMS7003;61345;48.922;2.244;2022-12-20T03:08:15;6.00;1.50;1.25
73146;PMS7003;61345;48.922;2.244;2022-12-20T03:10:41;1.50;1.00;1.00
73146;PMS7003;61345;48.922;2.244;2022-12-20T03:13:06;2.50;2.00;1.00
73146;PMS7003;61345;48.922;2.244;2022-12-20T03:15:31;2.00;2.00;1.00
73146;PMS7003;61345;48.922;2.244;2022-12-20T03:17:57;1.75;1.00;1.00
73146;PMS7003;61345;48.922;2.244;2022-12-20T03:20:22;1.00;1.00;1.00
73146;PMS7003;61345;48.922;2.244;2022-12-20T03:22:47;1.00;1.00;1.00
73146;PMS7003;61345;48.922;2.244;2022-12-20T03:25:13;3.75;2.50;1.75
73146;PMS7003;61345;48.922;2.244;2022-12-20T03:27:38;1.00;1.00;1.00
73146;PMS7003;61345;48.922;2.244;2022-12-20T03:30:04;2.00;2.00;1.25
73146;PMS7003;61345;48.922;2.244;2022-12-20T03:32:30;1.00;1.00;1.00
73146;PMS7003;61345;48.922;2.244;2022-12-20T03:34:56;2.00;1.25;1.00
73146;PMS7003;61345;48.922;2.244;2022-12-20T03:37:21;1.50;1.25;1.25
73146;PMS7003;61345;48.922;2.244;2022-12-20T03:39:46;1.50;1.00;1.00
73146;PMS7003;61345;48.922;2.244;2022-12-20T03:42:12;2.00;1.00;1.00
73146;PMS7003;61345;48.922;2.244;2022-12-20T03:44:37;0.00;0.00;0.00
73146;PMS7003;61345;48.922;2.244;2022-12-20T03:47:03;2.00;2.00;1.00
73146;PMS7003;61345;48.922;2.244;2022-12-20T03:49:28;1.00;1.00;1.00
73146;PMS7003;61345;48.922;2.244;2022-12-20T03:51:53;1.25;1.25;1.25
73146;PMS7003;61345;48.922;2.244;2022-12-20T03:54:19;2.00;2.00;1.00
73146;PMS7003;61345;48.922;2.244;2022-12-20T03:56:44;1.00;1.00;0.50
73146;PMS7003;61345;48.922;2.244;2022-12-20T03:59:09;3.25;1.25;0.50
73146;PMS7003;61345;48.922;2.244;2022-12-20T04:01:34;1.75;1.00;1.00
73146;PMS7003;61345;48.922;2.244;2022-12-20T04:04:02;1.25;1.00;1.00
73146;PMS7003;61345;48.922;2.244;2022-12-20T04:06:28;0.75;0.75;0.75
73146;PMS7003;61345;48.922;2.244;2022-12-20T04:08:53;3.00;2.00;1.75
73146;PMS7003;61345;48.922;2.244;2022-12-20T04:11:18;1.00;1.00;1.00
73146;PMS7003;61345;48.922;2.244;2022-12-20T04:13:48;1.00;1.00;0.75
73146;PMS7003;61345;48.922;2.244;2022-12-20T04:16:15;3.00;1.50;1.25
73146;PMS7003;61345;48.922;2.244;2022-12-20T04:18:42;2.75;2.00;2.00
73146;PMS7003;61345;48.922;2.244;2022-12-20T04:21:10;2.50;1.00;1.00
73146;PMS7003;61345;48.922;2.244;2022-12-20T04:23:36;2.00;1.00;1.00
73146;PMS7003;61345;48.922;2.244;2022-12-20T04:26:03;2.00;1.00;1.00
73146;PMS7003;61345;48.922;2.244;2022-12-20T04:28:29;1.00;1.00;1.00
73146;PMS7003;61345;48.922;2.244;2022-12-20T04:30:55;4.00;1.00;1.00
73146;PMS7003;61345;48.922;2.244;2022-12-20T04:33:21;2.00;1.00;1.00
73146;PMS7003;61345;48.922;2.244;2022-12-20T04:35:47;1.25;1.25;1.00
73146;PMS7003;61345;48.922;2.244;2022-12-20T04:38:13;1.00;1.00;1.00
73146;PMS7003;61345;48.922;2.244;2022-12-20T04:40:38;1.00;1.00;1.00
73146;PMS7003;61345;48.922;2.244;2022-12-20T04:43:04;2.00;1.00;1.00
73146;PMS7003;61345;48.922;2.244;2022-12-20T04:45:29;1.00;0.00;0.00
73146;PMS7003;61345;48.922;2.244;2022-12-20T04:47:54;0.00;0.00;0.00
73146;PMS7003;61345;48.922;2.244;2022-12-20T04:50:20;2.25;1.00;1.00
73146;PMS7003;61345;48.922;2.244;2022-12-20T04:52:45;3.25;0.75;0.00
73146;PMS7003;61345;48.922;2.244;2022-12-20T04:55:29;1.00;1.00;0.00
73146;PMS7003;61345;48.922;2.244;2022-12-20T04:57:55;1.00;1.00;1.00
73146;PMS7003;61345;48.922;2.244;2022-12-20T05:00:20;0.25;0.25;0.25
73146;PMS7003;61345;48.922;2.244;2022-12-20T05:02:46;2.00;2.00;1.00
73146;PMS7003;61345;48.922;2.244;2022-12-20T05:05:11;3.00;0.75;0.25
73146;PMS7003;61345;48.922;2.244;2022-12-20T05:07:38;2.00;2.00;1.00
73146;PMS7003;61345;48.922;2.244;2022-12-20T05:10:03;2.00;1.00;1.00
73146;PMS7003;61345;48.922;2.244;2022-12-20T05:12:29;0.75;0.00;0.00
73146;PMS7003;61345;48.922;2.244;2022-12-20T05:14:54;2.00;1.25;1.00
73146;PMS7003;61345;48.922;2.244;2022-12-20T05:17:20;3.00;0.25;0.25
73146;PMS7003;61345;48.922;2.244;2022-12-20T05:19:45;1.00;1.00;0.75
73146;PMS7003;61345;48.922;2.244;2022-12-20T05:22:11;1.00;1.00;1.00
73146;PMS7003;61345;48.922;2.244;2022-12-20T05:24:55;1.25;1.25;1.00
73146;PMS7003;61345;48.922;2.244;2022-12-20T05:27:38;1.00;1.00;1.00
73146;PMS7003;61345;48.922;2.244;2022-12-20T05:30:04;0.00;0.00;0.00
73146;PMS7003;61345;48.922;2.244;2022-12-20T05:32:30;0.00;0.00;0.00
73146;PMS7003;61345;48.922;2.244;2022-12-20T05:34:55;2.50;1.00;0.50
73146;PMS7003;61345;48.922;2.244;2022-12-20T05:37:20;0.00;0.00;0.00
73146;PMS7003;61345;48.922;2.244;2022-12-20T05:39:46;1.00;1.00;1.00
73146;PMS7003;61345;48.922;2.244;2022-12-20T05:42:11;2.00;1.00;1.00
73146;PMS7003;61345;48.922;2.244;2022-12-20T05:44:36;1.75;1.00;0.00
73146;PMS7003;61345;48.922;2.244;2022-12-20T05:47:02;3.50;0.75;0.75
73146;PMS7003;61345;48.922;2.244;2022-12-20T05:49:27;3.75;0.00;0.00
73146;PMS7003;61345;48.922;2.244;2022-12-20T05:51:52;1.00;1.00;1.00
73146;PMS7003;61345;48.922;2.244;2022-12-20T05:54:18;1.00;1.00;1.00
73146;PMS7003;61345;48.922;2.244;2022-12-20T05:56:43;2.00;1.50;1.00
73146;PMS7003;61345;48.922;2.244;2022-12-20T05:59:09;1.00;0.00;0.00
73146;PMS7003;61345;48.922;2.244;2022-12-20T06:01:34;1.00;1.00;1.00
73146;PMS7003;61345;48.922;2.244;2022-12-20T06:04:00;1.00;0.50;0.00
73146;PMS7003;61345;48.922;2.244;2022-12-20T06:06:26;1.00;1.00;1.00
73146;PMS7003;61345;48.922;2.244;2022-12-20T06:08:51;0.00;0.00;0.00
73146;PMS7003;61345;48.922;2.244;2022-12-20T06:11:16;0.50;0.00;0.00
73146;PMS7003;61345;48.922;2.244;2022-12-20T06:13:41;3.25;1.00;1.00
73146;PMS7003;61345;48.922;2.244;2022-12-20T06:16:07;0.50;0.50;0.25
73146;PMS7003;61345;48.922;2.244;2022-12-20T06:18:32;1.00;1.00;0.25
73146;PMS7003;61345;48.922;2.244;2022-12-20T06:20:57;1.00;0.50;0.50
73146;PMS7003;61345;48.922;2.244;2022-12-20T06:23:23;4.25;1.00;1.00
73146;PMS7003;61345;48.922;2.244;2022-12-20T06:25:49;1.00;1.00;1.00
73146;PMS7003;61345;48.922;2.244;2022-12-20T06:28:14;1.00;1.00;1.00
73146;PMS7003;61345;48.922;2.244;2022-12-20T06:30:50;0.25;0.25;0.25
73146;PMS7003;61345;48.922;2.244;2022-12-20T06:33:16;1.00;1.00;1.00
73146;PMS7003;61345;48.922;2.244;2022-12-20T06:35:42;3.50;1.00;0.25
73146;PMS7003;61345;48.922;2.244;2022-12-20T06:38:07;2.50;1.00;1.00
73146;PMS7003;61345;48.922;2.244;2022-12-20T06:40:32;2.25;2.00;1.00
73146;PMS7003;61345;48.922;2.244;2022-12-20T06:42:58;2.50;1.25;1.00
73146;PMS7003;61345;48.922;2.244;2022-12-20T06:45:23;0.00;0.00;0.00
73146;PMS7003;61345;48.922;2.244;2022-12-20T06:47:48;1.00;1.00;1.00
73146;PMS7003;61345;48.922;2.244;2022-12-20T06:50:14;1.00;1.00;1.00
73146;PMS7003;61345;48.922;2.244;2022-12-20T06:52:39;0.00;0.00;0.00
73146;PMS7003;61345;48.922;2.244;2022-12-20T06:55:04;2.00;0.75;0.25
73146;PMS7003;61345;48.922;2.244;2022-12-20T06:57:30;2.00;0.00;0.00
73146;PMS7003;61345;48.922;2.244;2022-12-20T06:59:55;1.00;1.00;1.00
73146;PMS7003;61345;48.922;2.244;2022-12-20T07:02:21;1.00;1.00;1.00
73146;PMS7003;61345;48.922;2.244;2022-12-20T07:04:46;1.00;1.00;1.00
73146;PMS7003;61345;48.922;2.244;2022-12-20T07:07:12;1.00;1.00;0.50
73146;PMS7003;61345;48.922;2.244;2022-12-20T07:09:37;1.50;1.50;1.00
73146;PMS7003;61345;48.922;2.244;2022-12-20T07:12:05;1.00;1.00;1.00
73146;PMS7003;61345;48.922;2.244;2022-12-20T07:14:31;2.25;1.75;1.75
73146;PMS7003;61345;48.922;2.244;2022-12-20T07:16:57;4.25;2.50;1.75
73146;PMS7003;61345;48.922;2.244;2022-12-20T07:19:22;3.25;1.50;1.00
73146;PMS7003;61345;48.922;2.244;2022-12-20T07:21:47;1.50;1.00;0.25
73146;PMS7003;61345;48.922;2.244;2022-12-20T07:24:13;2.00;1.00;1.00
73146;PMS7003;61345;48.922;2.244;2022-12-20T07:26:38;1.00;0.75;0.25
73146;PMS7003;61345;48.922;2.244;2022-12-20T07:29:04;2.75;1.75;1.00
73146;PMS7003;61345;48.922;2.244;2022-12-20T07:31:30;2.00;1.25;1.00
73146;PMS7003;61345;48.922;2.244;2022-12-20T07:33:55;3.25;2.00;2.00
73146;PMS7003;61345;48.922;2.244;2022-12-20T07:36:21;1.25;0.50;0.50
73146;PMS7003;61345;48.922;2.244;2022-12-20T07:38:46;0.25;0.25;0.00
73146;PMS7003;61345;48.922;2.244;2022-12-20T07:41:14;1.00;0.00;0.00
73146;PMS7003;61345;48.922;2.244;2022-12-20T07:43:41;1.00;0.75;0.75
73146;PMS7003;61345;48.922;2.244;2022-12-20T07:46:07;1.00;1.00;1.00
73146;PMS7003;61345;48.922;2.244;2022-12-20T07:48:33;2.00;1.00;1.00
73146;PMS7003;61345;48.922;2.244;2022-12-20T07:51:11;1.00;1.00;1.00
73146;PMS7003;61345;48.922;2.244;2022-12-20T07:53:41;2.00;1.00;1.00
73146;PMS7003;61345;48.922;2.244;2022-12-20T07:56:09;2.00;1.00;1.00
73146;PMS7003;61345;48.922;2.244;2022-12-20T07:58:36;4.00;2.00;1.00
73146;PMS7003;61345;48.922;2.244;2022-12-20T08:01:03;2.50;1.50;1.50
73146;PMS7003;61345;48.922;2.244;2022-12-20T08:03:34;0.50;0.50;0.00
73146;PMS7003;61345;48.922;2.244;2022-12-20T08:06:01;1.50;0.00;0.00
73146;PMS7003;61345;48.922;2.244;2022-12-20T08:08:33;2.00;1.00;1.00
73146;PMS7003;61345;48.922;2.244;2022-12-20T08:11:01;1.00;1.00;1.00
73146;PMS7003;61345;48.922;2.244;2022-12-20T08:13:26;1.00;0.00;0.00
73146;PMS7003;61345;48.922;2.244;2022-12-20T08:16:01;4.00;1.00;1.00
73146;PMS7003;61345;48.922;2.244;2022-12-20T08:18:26;1.50;1.50;1.00
73146;PMS7003;61345;48.922;2.244;2022-12-20T08:20:52;1.00;1.00;1.00
73146;PMS7003;61345;48.922;2.244;2022-12-20T08:23:17;1.00;0.00;0.00
73146;PMS7003;61345;48.922;2.244;2022-12-20T08:25:43;0.75;0.75;0.75
73146;PMS7003;61345;48.922;2.244;2022-12-20T08:28:09;2.25;1.00;1.00
73146;PMS7003;61345;48.922;2.244;2022-12-20T08:30:35;3.00;1.00;1.00
73146;PMS7003;61345;48.922;2.244;2022-12-20T08:33:08;1.00;1.00;1.00
73146;PMS7003;61345;48.922;2.244;2022-12-20T08:35:34;1.75;1.00;1.00
73146;PMS7003;61345;48.922;2.244;2022-12-20T08:37:59;2.75;1.00;1.00
73146;PMS7003;61345;48.922;2.244;2022-12-20T08:40:25;3.25;0.00;0.00
73146;PMS7003;61345;48.922;2.244;2022-12-20T08:42:50;2.75;1.00;1.00
73146;PMS7003;61345;48.922;2.244;2022-12-20T08:45:15;5.00;2.00;1.00
73146;PMS7003;61345;48.922;2.244;2022-12-20T08:47:43;1.75;1.00;1.00
73146;PMS7003;61345;48.922;2.244;2022-12-20T08:50:08;1.00;1.00;1.00
73146;PMS7003;61345;48.922;2.244;2022-12-20T08:52:34;0.25;0.25;0.00
73146;PMS7003;61345;48.922;2.244;2022-12-20T08:54:59;2.00;1.00;1.00
73146;PMS7003;61345;48.922;2.244;2022-12-20T08:57:25;1.50;1.00;1.00
73146;PMS7003;61345;48.922;2.244;2022-12-20T08:59:50;0.25;0.00;0.00
73146;PMS7003;61345;48.922;2.244;2022-12-20T09:02:15;3.00;1.00;1.00
73146;PMS7003;61345;48.922;2.244;2022-12-20T09:04:41;2.25;1.00;0.75
73146;PMS7003;61345;48.922;2.244;2022-12-20T09:07:08;3.25;1.00;1.00
73146;PMS7003;61345;48.922;2.244;2022-12-20T09:09:34;1.75;1.00;1.00
73146;PMS7003;61345;48.922;2.244;2022-12-20T09:12:02;1.25;0.25;0.00
73146;PMS7003;61345;48.922;2.244;2022-12-20T09:14:27;1.25;1.25;1.00
73146;PMS7003;61345;48.922;2.244;2022-12-20T09:16:53;0.00;0.00;0.00
73146;PMS7003;61345;48.922;2.244;2022-12-20T09:19:18;1.00;1.00;0.50
73146;PMS7003;61345;48.922;2.244;2022-12-20T09:21:44;1.00;1.00;0.50
73146;PMS7003;61345;48.922;2.244;2022-12-20T09:24:09;1.25;1.00;1.00
73146;PMS7003;61345;48.922;2.244;2022-12-20T09:26:47;5.50;1.25;1.00
73146;PMS7003;61345;48.922;2.244;2022-12-20T09:29:15;2.75;1.00;0.75
73146;PMS7003;61345;48.922;2.244;2022-12-20T09:35:03;2.75;1.00;1.00
73146;PMS7003;61345;48.922;2.244;2022-12-20T09:37:35;4.00;1.50;1.00
73146;PMS7003;61345;48.922;2.244;2022-12-20T09:40:00;1.00;1.00;1.00
73146;PMS7003;61345;48.922;2.244;2022-12-20T09:42:26;3.00;2.00;2.00
73146;PMS7003;61345;48.922;2.244;2022-12-20T09:45:13;1.00;1.00;1.00
73146;PMS7003;61345;48.922;2.244;2022-12-20T09:51:42;2.00;2.00;2.00
73146;PMS7003;61345;48.922;2.244;2022-12-20T09:53:50;4.00;2.00;2.00
73146;PMS7003;61345;48.922;2.244;2022-12-20T09:56:23;2.00;2.00;1.75
73146;PMS7003;61345;48.922;2.244;2022-12-20T09:58:56;3.00;3.00;2.75
73146;PMS7003;61345;48.922;2.244;2022-12-20T10:01:26;6.00;2.00;1.00
73146;PMS7003;61345;48.922;2.244;2022-12-20T10:03:54;2.00;1.00;1.00
73146;PMS7003;61345;48.922;2.244;2022-12-20T10:11:45;2.00;2.00;1.00
73146;PMS7003;61345;48.922;2.244;2022-12-20T10:14:29;2.00;2.00;1.25
73146;PMS7003;61345;48.922;2.244;2022-12-20T10:27:45;2.00;1.00;1.00
73146;PMS7003;61345;48.922;2.244;2022-12-20T10:30:22;2.25;2.00;2.00
73146;PMS7003;61345;48.922;2.244;2022-12-20T10:32:50;2.25;2.00;1.75
73146;PMS7003;61345;48.922;2.244;2022-12-20T10:35:21;7.25;1.75;1.00
73146;PMS7003;61345;48.922;2.244;2022-12-20T10:37:57;3.75;1.75;1.00
73146;PMS7003;61345;48.922;2.244;2022-12-20T10:43:08;2.75;2.75;2.00
73146;PMS7003;61345;48.922;2.244;2022-12-20T10:45:39;3.00;3.00;2.00
73146;PMS7003;61345;48.922;2.244;2022-12-20T10:48:27;3.00;2.00;1.00
73146;PMS7003;61345;48.922;2.244;2022-12-20T10:50:58;2.00;2.00;1.25
73146;PMS7003;61345;48.922;2.244;2022-12-20T10:53:30;3.75;2.00;2.00
73146;PMS7003;61345;48.922;2.244;2022-12-20T10:58:52;1.00;1.00;1.00
73146;PMS7003;61345;48.922;2.244;2022-12-20T11:01:19;2.25;1.25;1.00
73146;PMS7003;61345;48.922;2.244;2022-12-20T11:06:27;4.25;2.00;1.25
73146;PMS7003;61345;48.922;2.244;2022-12-20T11:12:05;3.25;2.00;1.25
73146;PMS7003;61345;48.922;2.244;2022-12-20T11:14:32;5.00;3.00;2.00
73146;PMS7003;61345;48.922;2.244;2022-12-20T11:16:59;4.75;2.25;1.75
73146;PMS7003;61345;48.922;2.244;2022-12-20T11:19:30;1.75;1.75;1.00
73146;PMS7003;61345;48.922;2.244;2022-12-20T11:22:09;3.00;2.00;2.00
73146;PMS7003;61345;48.922;2.244;2022-12-20T11:24:50;3.25;2.00;1.00
73146;PMS7003;61345;48.922;2.244;2022-12-20T11:27:31;1.75;1.00;1.00
73146;PMS7003;61345;48.922;2.244;2022-12-20T11:30:12;2.75;2.75;2.00
73146;PMS7003;61345;48.922;2.244;2022-12-20T11:49:15;2.25;1.00;1.00
73146;PMS7003;61345;48.922;2.244;2022-12-20T11:51:59;6.50;3.00;2.00
73146;PMS7003;61345;48.922;2.244;2022-12-20T11:54:35;15.00;12.00;7.75
73146;PMS7003;61345;48.922;2.244;2022-12-20T11:59:58;9.50;8.00;5.50
73146;PMS7003;61345;48.922;2.244;2022-12-20T12:05:03;42.25;21.75;15.50
73146;PMS7003;61345;48.922;2.244;2022-12-20T12:07:31;13.00;8.75;6.50
73146;PMS7003;61345;48.922;2.244;2022-12-20T12:10:02;16.75;8.75;6.75
73146;PMS7003;61345;48.922;2.244;2022-12-20T12:12:39;8.00;7.00;6.00
73146;PMS7003;61345;48.922;2.244;2022-12-20T12:17:46;6.50;6.00;4.00
73146;PMS7003;61345;48.922;2.244;2022-12-20T12:26:29;8.25;3.00;1.50
73146;PMS7003;61345;48.922;2.244;2022-12-20T12:29:00;2.00;1.75;1.75
73146;PMS7003;61345;48.922;2.244;2022-12-20T12:31:34;3.75;3.00;2.00
73146;PMS7003;61345;48.922;2.244;2022-12-20T12:45:01;4.00;4.00;3.00
73146;PMS7003;61345;48.922;2.244;2022-12-20T12:47:39;7.25;3.50;2.00
73146;PMS7003;61345;48.922;2.244;2022-12-20T12:50:23;2.75;2.00;1.75
73146;PMS7003;61345;48.922;2.244;2022-12-20T12:52:54;6.00;4.00;3.00
73146;PMS7003;61345;48.922;2.244;2022-12-20T12:55:40;8.75;3.00;2.00
73146;PMS7003;61345;48.922;2.244;2022-12-20T13:00:54;6.00;3.50;2.00
73146;PMS7003;61345;48.922;2.244;2022-12-20T13:03:47;3.00;3.00;2.00
73146;PMS7003;61345;48.922;2.244;2022-12-20T13:11:28;1.50;1.50;1.00
73146;PMS7003;61345;48.922;2.244;2022-12-20T13:16:41;2.25;2.00;1.00
73146;PMS7003;61345;48.922;2.244;2022-12-20T13:19:11;2.25;2.25;2.00
73146;PMS7003;61345;48.922;2.244;2022-12-20T13:21:38;5.00;2.75;2.00
73146;PMS7003;61345;48.922;2.244;2022-12-20T13:30:29;3.75;3.00;2.00
73146;PMS7003;61345;48.922;2.244;2022-12-20T13:37:54;2.00;2.00;2.00
73146;PMS7003;61345;48.922;2.244;2022-12-20T13:40:34;2.25;2.25;2.00
73146;PMS7003;61345;48.922;2.244;2022-12-20T13:45:46;3.00;2.00;1.00
73146;PMS7003;61345;48.922;2.244;2022-12-20T13:48:25;3.25;3.00;2.00
73146;PMS7003;61345;48.922;2.244;2022-12-20T13:50:53;2.00;2.00;1.00
73146;PMS7003;61345;48.922;2.244;2022-12-20T13:53:20;3.75;3.00;2.25
73146;PMS7003;61345;48.922;2.244;2022-12-20T13:55:48;6.50;2.50;2.00
73146;PMS7003;61345;48.922;2.244;2022-12-20T14:00:47;2.75;2.25;1.75
73146;PMS7003;61345;48.922;2.244;2022-12-20T14:03:21;6.75;4.50;3.00
73146;PMS7003;61345;48.922;2.244;2022-12-20T14:05:48;7.00;6.00;4.00
73146;PMS7003;61345;48.922;2.244;2022-12-20T14:08:20;7.50;5.00;3.50
73146;PMS7003;61345;48.922;2.244;2022-12-20T14:10:47;3.25;2.75;2.00
73146;PMS7003;61345;48.922;2.244;2022-12-20T14:13:25;4.50;2.00;2.00
73146;PMS7003;61345;48.922;2.244;2022-12-20T14:15:51;4.00;3.25;3.00
73146;PMS7003;61345;48.922;2.244;2022-12-20T14:18:19;3.25;2.00;2.00
73146;PMS7003;61345;48.922;2.244;2022-12-20T14:20:49;4.50;4.00;3.00
73146;PMS7003;61345;48.922;2.244;2022-12-20T14:23:21;4.75;3.50;3.00
73146;PMS7003;61345;48.922;2.244;2022-12-20T14:25:50;4.00;4.00;3.00
73146;PMS7003;61345;48.922;2.244;2022-12-20T14:28:28;6.50;4.00;3.00
73146;PMS7003;61345;48.922;2.244;2022-12-20T14:30:56;5.25;3.00;2.50
73146;PMS7003;61345;48.922;2.244;2022-12-20T14:33:38;2.00;2.00;1.50
73146;PMS7003;61345;48.922;2.244;2022-12-20T14:38:48;2.00;2.00;2.00
73146;PMS7003;61345;48.922;2.244;2022-12-20T14:41:31;6.75;4.00;3.00
73146;PMS7003;61345;48.922;2.244;2022-12-20T14:46:31;3.25;2.75;2.25
73146;PMS7003;61345;48.922;2.244;2022-12-20T14:49:06;3.75;2.25;1.75
73146;PMS7003;61345;48.922;2.244;2022-12-20T14:51:43;4.00;3.00;2.00
73146;PMS7003;61345;48.922;2.244;2022-12-20T14:54:20;4.00;2.00;1.00
73146;PMS7003;61345;48.922;2.244;2022-12-20T14:56:48;3.00;3.00;3.00
73146;PMS7003;61345;48.922;2.244;2022-12-20T14:59:16;5.00;2.50;2.00
73146;PMS7003;61345;48.922;2.244;2022-12-20T15:01:48;3.50;2.75;2.00
73146;PMS7003;61345;48.922;2.244;2022-12-20T15:04:24;3.25;2.25;2.00
73146;PMS7003;61345;48.922;2.244;2022-12-20T15:06:55;2.25;2.00;2.00
73146;PMS7003;61345;48.922;2.244;2022-12-20T15:09:21;2.25;2.25;2.00
73146;PMS7003;61345;48.922;2.244;2022-12-20T15:11:47;5.00;2.75;2.25
73146;PMS7003;61345;48.922;2.244;2022-12-20T15:16:51;4.00;3.00;2.00
73146;PMS7003;61345;48.922;2.244;2022-12-20T15:19:17;7.50;3.00;2.00
73146;PMS7003;61345;48.922;2.244;2022-12-20T15:21:42;4.00;3.00;2.00
73146;PMS7003;61345;48.922;2.244;2022-12-20T15:24:10;1.00;1.00;1.00
73146;PMS7003;61345;48.922;2.244;2022-12-20T15:26:38;2.00;2.00;1.25
73146;PMS7003;61345;48.922;2.244;2022-12-20T15:29:04;1.00;1.00;0.50
73146;PMS7003;61345;48.922;2.244;2022-12-20T15:31:30;3.00;2.00;2.00
73146;PMS7003;61345;48.922;2.244;2022-12-20T15:33:58;3.00;2.00;2.00
73146;PMS7003;61345;48.922;2.244;2022-12-20T15:36:24;4.00;4.00;2.75
73146;PMS7003;61345;48.922;2.244;2022-12-20T15:38:52;2.00;2.00;2.00
73146;PMS7003;61345;48.922;2.244;2022-12-20T15:41:22;2.25;2.00;2.00
73146;PMS7003;61345;48.922;2.244;2022-12-20T15:43:55;3.25;2.00;1.75
73146;PMS7003;61345;48.922;2.244;2022-12-20T15:46:21;7.00;3.00;2.00
73146;PMS7003;61345;48.922;2.244;2022-12-20T15:48:50;4.00;3.00;2.00
73146;PMS7003;61345;48.922;2.244;2022-12-20T15:51:37;3.00;3.00;2.75
73146;PMS7003;61345;48.922;2.244;2022-12-20T15:54:06;4.00;3.00;2.25
73146;PMS7003;61345;48.922;2.244;2022-12-20T15:56:42;5.00;2.50;1.50
73146;PMS7003;61345;48.922;2.244;2022-12-20T15:59:10;7.25;3.25;2.50
73146;PMS7003;61345;48.922;2.244;2022-12-20T16:01:36;3.75;3.00;2.00
73146;PMS7003;61345;48.922;2.244;2022-12-20T16:04:02;3.50;3.00;2.00
73146;PMS7003;61345;48.922;2.244;2022-12-20T16:06:29;4.25;2.00;2.00
73146;PMS7003;61345;48.922;2.244;2022-12-20T16:08:54;4.00;4.00;2.50
73146;PMS7003;61345;48.922;2.244;2022-12-20T16:13:48;4.00;3.00;3.00
73146;PMS7003;61345;48.922;2.244;2022-12-20T16:16:16;8.00;5.50;4.25
73146;PMS7003;61345;48.922;2.244;2022-12-20T16:18:42;4.75;4.25;4.00
73146;PMS7003;61345;48.922;2.244;2022-12-20T16:21:19;6.25;6.25;5.00
73146;PMS7003;61345;48.922;2.244;2022-12-20T16:23:45;7.00;6.00;5.50
73146;PMS7003;61345;48.922;2.244;2022-12-20T16:29:33;9.25;6.00;4.25
73146;PMS7003;61345;48.922;2.244;2022-12-20T16:31:58;8.00;3.00;3.00
73146;PMS7003;61345;48.922;2.244;2022-12-20T16:34:23;4.00;3.75;3.00
73146;PMS7003;61345;48.922;2.244;2022-12-20T16:36:49;5.75;4.25;2.25
73146;PMS7003;61345;48.922;2.244;2022-12-20T16:39:14;6.75;4.75;3.00